Terminal Aerodrome Forecast
Issued by NWS

Home | Current Version | Previous Version | Text Only | Print | Product List | Glossary On
Versions: 1 2 3 4 5 6 7 8 9 10 11 12 13 14 15 16
000
FTUS43 KOAX 270523
TAFSNY
TAF
KSNY 270523Z 2706/2806 05015G22KT P6SM -RA BKN005 OVC020
     FM271600 35017G25KT P6SM BKN015 BKN050
     FM271800 35014G21KT P6SM VCSH OVC050
     FM280100 33007KT P6SM SCT200=

USA.gov is the U.S. government's official web portal to all federal, state and local government web resources and services.